KOKC/OKC METAR and TAF weather

Enter ICAO airport designator
Station Type Date Time Source
KOKC METAR 2019/08/19 06:52 UTC NOAA

KOKC 190652Z 16009KT 10SM SCT250 27/22 A2992 RMK AO2 SLP112 T02670217


Station Type Date Time Source
KOKC Decoded METAR 2019/08/19 06:52 UTC NOAA

Station name not available
Aug 19, 2019 - 02:52 AM EDT / 2019.08.19 0652 UTC
Wind: from the SSE (160 degrees) at 10 MPH (9 KT):0
Visibility: 10 mile(s):0
Sky conditions: partly cloudy
Temperature: 80.1 F (26.7 C)
Dew Point: 71.1 F (21.7 C)
Relative Humidity: 74%
Pressure (altimeter): 29.92 in. Hg (1013 hPa)
ob: KOKC 190652Z 16009KT 10SM SCT250 27/22 A2992 RMK AO2 SLP112 T02670217
cycle: 7

Station Type Date Time Source
KOKC TAF 2019/08/19 06:22 UTC NOAA

TAF KOKC 190520Z 1906/2006 17010KT P6SM FEW060 SCT250

Example: see airport list